Athens, Greece
Current Conditions -  °F | °C
As of 11:20 PM on Monday 24 Nov 2014 (Local Time) from LGEL Reporting Station
Few Clouds Few Clouds  
Wind Chill:   Ceiling: Unl
Heat Index:   Visibility: 6mi
Dew Point:   Wind: 6mph
Humidity: 76%   Direction: 360°N
Pressure: 30.18"   Gusts: NA
Location:  37.98°N, 23.73°E
Report Text: LGEL 242020Z 36005KT 9999 FEW030 08/04 Q1022
Loading
Personal Weather Stations






























Interactive Weather Map New forecast layout! Learn more

10-Day Weather Forecast

Advertisements
Track Severe Weather on mobile